Latest Weather Observations for Mount Boyce

IDN60901

Issued at 10:51 pm EST Sunday 26 April 2015 (issued every 10 minutes, with the page automatically refreshed every 10 minutes)

About weather observations | Map of Sydney area stations | Latest observations for Sydney area | Other Formats
Station Details ID: 063292 Name: MOUNT BOYCE AWS Lat: -33.62 Lon: 150.27 Height: 1080.0 m
Data from the previous 72 hours. | See also: Recent months at Mount Boyce
Date/Time
EST
Tmp

°C
App
Tmp
°C
Dew
Point
°C
Rel
Hum
%
Delta-T

°C
Wind Press
QNH
hPa
Press
MSL
hPa
Rain
since
9 am
mm
Dir
 
Spd
km/h
Gust
km/h
Spd
kts
Gust
kts
26/10:30pm 7.8 2.8 6.3 90 0.7 WSW 22 32 12 17 - - 0.0
26/10:00pm 8.1 3.1 6.4 89 0.8 WSW 22 32 12 17 - - 0.0
26/09:30pm 8.3 3.3 6.6 89 0.8 W 22 32 12 17 - - 0.0
26/09:00pm 8.2 3.2 6.5 89 0.8 WSW 22 37 12 20 - - 0.0
26/08:30pm 8.3 3.7 6.6 89 0.8 WSW 20 32 11 17 - - 0.0
26/08:00pm 8.4 3.0 6.5 88 0.9 WSW 24 32 13 17 - - 0.0
26/07:30pm 8.5 3.1 6.5 87 1.0 WSW 24 39 13 21 - - 0.0
26/07:00pm 8.4 2.3 6.4 87 1.0 WSW 28 39 15 21 - - 0.0
26/06:30pm 8.4 2.7 6.5 88 0.9 WSW 26 39 14 21 - - 0.0
26/05:30pm 8.7 1.8 6.5 86 1.1 WSW 32 46 17 25 - - 0.0
26/05:23pm 8.8 2.7 6.4 85 1.2 WSW 28 46 15 25 - - 0.0
26/05:22pm 8.8 2.7 6.4 85 1.2 WSW 28 46 15 25 - - 0.0
26/05:00pm 8.9 3.9 6.5 85 1.2 WSW 22 39 12 21 - - 0.0
26/04:30pm 9.7 4.4 7.0 83 1.4 WSW 24 35 13 19 - - 0.0
26/04:00pm 9.4 4.8 6.7 83 1.3 WSW 20 30 11 16 - - 0.0
26/03:30pm 10.3 4.9 6.3 76 2.0 WSW 24 39 13 21 - - 0.0
26/03:00pm 10.8 5.4 6.4 74 2.2 WSW 24 37 13 20 - - 0.0
26/02:30pm 10.2 5.7 7.1 81 1.6 WSW 20 28 11 15 - - 0.0
26/02:09pm 9.4 4.1 6.7 83 1.3 WSW 24 35 13 19 - - 0.0
26/02:00pm 8.7 2.6 6.5 86 1.1 SW 28 46 15 25 - - 0.0
26/01:55pm 8.6 2.4 6.2 85 1.2 SW 28 46 15 25 - - 0.0
26/01:51pm 8.7 2.5 6.2 84 1.2 SW 28 46 15 25 - - 0.0
26/01:30pm 8.4 3.3 6.2 86 1.1 WSW 22 33 12 18 - - 0.0
26/01:00pm 8.0 1.8 6.0 87 1.0 WSW 28 41 15 22 - - 0.0
26/12:30pm 8.3 1.6 5.8 84 1.2 WSW 30 44 16 24 - - 0.0
26/12:11pm 8.4 1.3 5.7 83 1.3 WSW 32 50 17 27 - - 0.0
26/12:00pm 8.3 1.0 5.4 82 1.4 WSW 33 46 18 25 - - 0.0
26/11:30am 8.3 1.0 5.4 82 1.4 WSW 33 52 18 28 - - 0.0
26/11:25am 8.2 1.0 5.1 81 1.5 WSW 32 52 17 28 - - 0.0
26/11:22am 8.3 1.0 5.4 82 1.4 WSW 33 50 18 27 - - 0.0
26/11:19am 8.3 1.2 5.4 82 1.4 WSW 32 50 17 27 - - 0.0
26/11:00am 8.4 1.2 5.7 83 1.3 WSW 33 50 18 27 - - 0.0
26/10:34am 7.6 -0.5 5.2 85 1.1 WSW 37 56 20 30 - - 0.0
26/10:30am 7.6 -0.5 5.2 85 1.1 WSW 37 54 20 29 - - 0.0
26/10:00am 7.3 0.0 5.3 87 0.9 WSW 33 54 18 29 - - 0.0
26/09:36am 7.1 -0.2 5.3 88 0.9 WSW 33 54 18 29 - - 0.0
26/09:00am 6.8 0.9 5.7 93 0.5 WSW 26 35 14 19 - - 10.6
26/08:30am 6.3 1.1 5.7 96 0.3 WSW 22 32 12 17 - - 10.6
26/08:24am 6.2 1.0 5.6 96 0.3 WSW 22 30 12 16 - - 10.6
26/08:06am 6.2 0.3 5.9 98 0.1 WSW 26 37 14 20 - - 10.6
26/08:00am 6.2 0.3 5.9 98 0.1 WSW 26 35 14 19 - - 10.6
26/07:30am 5.7 0.5 5.4 98 0.1 WSW 22 30 12 16 - - 10.6
26/07:24am 5.6 0.7 5.3 98 0.1 WSW 20 30 11 16 - - 10.6
26/07:23am 5.5 0.6 5.2 98 0.1 WSW 20 30 11 16 - - 10.6
26/07:09am 5.4 1.1 5.1 98 0.1 W 17 24 9 13 - - 10.6
26/07:00am 5.3 0.6 5.0 98 0.1 W 19 24 10 13 - - 10.6
26/06:31am 5.0 0.2 4.7 98 0.1 WSW 19 24 10 13 - - 10.6
26/06:30am 5.0 0.2 4.7 98 0.1 WSW 19 26 10 14 - - 10.6
26/06:16am 4.9 -0.1 4.6 98 0.1 W 20 26 11 14 - - 10.6
26/05:52am 4.8 0.4 4.5 98 0.1 W 17 22 9 12 - - 10.6
26/05:30am 4.8 0.4 4.5 98 0.1 W 17 22 9 12 - - 10.6
26/05:00am 4.4 0.3 4.1 98 0.1 W 15 22 8 12 - - 10.6
26/04:30am 4.3 0.1 3.9 97 0.2 W 15 20 8 11 - - 10.6
26/04:00am 4.3 -0.3 3.9 97 0.2 W 17 24 9 13 - - 10.6
26/03:30am 4.2 -0.7 3.9 98 0.1 W 19 26 10 14 - - 10.6
26/03:08am 4.4 -0.5 4.1 98 0.1 W 19 26 10 14 - - 10.6
26/03:00am 4.4 -0.5 4.1 98 0.1 W 19 28 10 15 - - 10.6
26/02:55am 4.4 -0.5 4.1 98 0.1 WSW 19 28 10 15 - - 10.6
26/02:36am 4.6 -0.5 4.3 98 0.1 WSW 20 26 11 14 - - 10.6
26/02:30am 4.6 -0.8 4.3 98 0.1 WSW 22 30 12 16 - - 10.6
26/02:15am 4.8 -1.4 4.5 98 0.1 WSW 26 43 14 23 - - 10.6
26/02:14am 4.8 -1.7 4.5 98 0.1 WSW 28 43 15 23 - - 10.6
26/02:12am 4.8 -1.7 4.5 98 0.1 WSW 28 41 15 22 - - 10.6
26/02:00am 4.8 -1.0 4.5 98 0.1 WSW 24 33 13 18 - - 10.6
26/01:30am 5.1 0.1 4.7 97 0.2 WSW 20 32 11 17 - - 10.4
26/01:26am 5.1 -0.3 4.7 97 0.2 SW 22 32 12 17 - - 10.2
26/01:06am 5.4 1.4 4.8 96 0.3 W 15 24 8 13 - - 9.8
26/01:00am 5.4 1.4 4.7 95 0.3 W 15 28 8 15 - - 9.4
26/12:58am 5.5 1.1 4.8 95 0.3 WNW 17 28 9 15 - - 9.4
26/12:30am 5.9 0.3 5.3 96 0.3 WNW 24 37 13 20 - - 9.0
 
Date/Time
EST
Tmp

°C
App
Tmp
°C
Dew
Point
°C
Rel
Hum
%
Delta-T

°C
Wind Press
QNH
hPa
Press
MSL
hPa
Rain
since
9 am
mm
Dir
 
Spd
km/h
Gust
km/h
Spd
kts
Gust
kts
25/11:53pm 6.5 2.0 6.2 98 0.1 W 19 28 10 15 - - 8.8
25/11:37pm 6.5 3.2 6.2 98 0.1 W 13 19 7 10 - - 8.8
25/11:33pm 6.5 3.2 6.2 98 0.1 W 13 17 7 9 - - 8.8
25/11:30pm 6.5 3.2 6.2 98 0.1 W 13 17 7 9 - - 8.8
25/11:00pm 6.7 2.2 6.3 97 0.2 WSW 19 28 10 15 - - 8.8
25/10:46pm 7.0 2.0 6.3 95 0.3 WSW 22 39 12 21 - - 8.2
25/10:33pm 7.4 1.2 6.3 93 0.5 W 28 46 15 25 - - 8.2
25/10:32pm 7.4 1.6 6.3 93 0.5 W 26 46 14 25 - - 8.2
25/10:30pm 7.5 1.7 6.3 92 0.6 W 26 46 14 25 - - 8.2
25/10:00pm 8.1 4.1 6.6 90 0.7 W 17 24 9 13 - - 8.2
25/09:30pm 8.4 5.2 6.7 89 0.8 W 13 17 7 9 - - 8.0
25/09:00pm 8.4 5.9 6.4 87 1.0 WNW 9 15 5 8 - - 8.0
25/08:30pm 8.2 5.7 6.5 89 0.8 W 9 11 5 6 - - 8.0
25/08:00pm 8.4 5.9 6.5 88 0.9 WSW 9 13 5 7 - - 8.0
25/07:30pm 9.1 5.0 6.2 82 1.4 WSW 17 26 9 14 - - 8.0
25/07:00pm 11.7 8.3 6.0 68 2.8 NW 13 20 7 11 - - 7.8
25/06:30pm 11.9 9.3 6.2 68 2.9 NNW 9 19 5 10 - - 7.8
25/06:00pm 11.8 9.2 6.1 68 2.8 N 9 15 5 8 - - 7.8
25/05:30pm 11.7 9.0 5.8 67 2.9 N 9 13 5 7 - - 7.8
25/05:00pm 12.0 8.8 5.0 62 3.4 NNW 11 19 6 10 - - 7.8
25/04:30pm 13.3 10.2 5.7 60 3.8 NW 11 22 6 12 - - 7.8
25/04:00pm 13.2 9.8 6.1 62 3.6 NW 13 24 7 13 - - 7.8
25/03:30pm 12.4 8.7 6.5 67 3.0 N 15 28 8 15 - - 7.8
25/03:00pm 10.7 7.4 6.3 74 2.2 N 13 20 7 11 - - 7.8
25/02:40pm 10.3 7.0 6.5 77 1.9 N 13 19 7 10 - - 7.8
25/02:30pm 10.2 7.6 7.8 85 1.2 NNE 11 22 6 12 - - 7.8
25/02:00pm 9.4 4.9 4.2 70 2.4 WSW 17 35 9 19 - - 3.2
25/01:53pm 10.0 5.0 4.8 70 2.5 WSW 20 39 11 21 - - 1.8
25/01:30pm 14.1 13.9 8.9 71 2.8 CALM 0 0 0 0 - - 1.2
25/01:00pm 13.7 11.5 7.7 67 3.1 W 9 17 5 9 - - 1.2
25/12:30pm 13.9 11.9 8.7 71 2.8 WNW 9 15 5 8 - - 1.2
25/12:13pm 13.1 11.6 9.2 77 2.1 WNW 7 11 4 6 - - 1.2
25/12:00pm 12.4 10.5 9.2 81 1.7 NNW 9 13 5 7 - - 1.2
25/11:54am 12.6 10.7 9.1 79 1.9 NW 9 17 5 9 - - 0.8
25/11:30am 13.7 10.7 6.1 60 3.8 W 11 19 6 10 - - 0.0
25/11:00am 14.0 10.1 7.3 64 3.5 W 17 24 9 13 - - 0.0
25/10:30am 13.7 10.7 7.7 67 3.1 W 13 22 7 12 - - 0.0
25/10:00am 13.2 11.1 8.1 71 2.7 W 9 17 5 9 - - 0.0
25/09:30am 12.3 8.9 7.6 73 2.4 W 15 22 8 12 - - 0.0
25/09:00am 11.3 7.8 7.0 75 2.2 W 15 20 8 11 - - 0.2
25/08:30am 10.4 6.5 6.9 79 1.8 WSW 17 24 9 13 - - 0.2
25/08:00am 9.5 5.2 6.9 84 1.3 WSW 19 26 10 14 - - 0.2
25/07:30am 9.0 4.5 6.8 86 1.1 W 20 26 11 14 - - 0.2
25/07:00am 8.7 4.2 7.0 89 0.8 W 20 24 11 13 - - 0.2
25/06:30am 8.2 3.9 7.1 93 0.5 WSW 19 26 10 14 - - 0.2
25/06:00am 8.3 3.9 7.2 93 0.5 W 20 26 11 14 - - 0.2
25/05:30am 8.4 4.0 7.5 94 0.5 WSW 20 26 11 14 - - 0.2
25/05:00am 8.5 4.1 7.4 93 0.6 WSW 20 28 11 15 - - 0.2
25/04:30am 8.4 4.0 7.5 94 0.5 WSW 20 28 11 15 - - 0.2
25/04:00am 8.6 3.5 7.5 93 0.6 WSW 24 33 13 18 - - 0.2
25/03:30am 8.9 4.2 7.7 92 0.6 WSW 22 33 12 18 - - 0.2
25/03:00am 8.8 4.0 7.4 91 0.7 WSW 22 32 12 17 - - 0.2
25/02:30am 9.2 4.4 7.5 89 0.9 WSW 22 33 12 18 - - 0.2
25/02:00am 9.3 4.9 7.4 88 1.0 WSW 20 30 11 16 - - 0.2
25/01:30am 9.6 4.1 7.5 87 1.1 W 26 37 14 20 - - 0.2
25/01:00am 9.7 4.6 7.6 87 1.1 W 24 33 13 18 - - 0.2
25/12:30am 9.9 5.2 7.8 87 1.1 W 22 32 12 17 - - 0.2
25/12:00am 10.0 5.3 7.8 86 1.1 W 22 33 12 18 - - 0.2
 
Date/Time
EST
Tmp

°C
App
Tmp
°C
Dew
Point
°C
Rel
Hum
%
Delta-T

°C
Wind Press
QNH
hPa
Press
MSL
hPa
Rain
since
9 am
mm
Dir
 
Spd
km/h
Gust
km/h
Spd
kts
Gust
kts
24/11:30pm 10.1 5.5 8.0 87 1.1 W 22 30 12 16 - - 0.2
24/11:00pm 10.5 5.2 8.4 87 1.1 W 26 39 14 21 - - 0.2
24/10:30pm 10.6 4.9 8.4 86 1.1 W 28 41 15 22 - - 0.2
24/10:00pm 10.7 5.7 8.1 84 1.3 W 24 35 13 19 - - 0.2
24/09:30pm 11.2 6.2 8.1 81 1.6 W 24 39 13 21 - - 0.2
24/09:00pm 11.2 7.0 8.1 81 1.6 W 20 30 11 16 - - 0.2
24/08:30pm 11.3 7.7 8.3 82 1.6 W 17 26 9 14 - - 0.2
24/08:00pm 11.2 8.8 8.6 84 1.4 W 11 15 6 8 - - 0.2
24/07:30pm 12.0 8.9 8.8 81 1.7 W 15 24 8 13 - - 0.2
24/07:00pm 12.4 8.9 8.9 79 1.9 W 17 28 9 15 - - 0.2
24/06:30pm 12.9 9.5 9.0 77 2.1 W 17 26 9 14 - - 0.2
24/06:00pm 13.0 10.3 8.9 76 2.2 W 13 20 7 11 - - 0.2
24/05:30pm 13.1 9.6 8.8 75 2.3 W 17 32 9 17 - - 0.2
24/05:00pm 14.1 10.7 9.1 72 2.7 W 17 28 9 15 - - 0.2
24/04:30pm 13.7 10.4 9.4 75 2.3 W 17 28 9 15 - - 0.2
24/04:00pm 14.0 10.3 9.4 74 2.5 W 19 32 10 17 - - 0.2
24/03:30pm 14.8 11.5 9.4 70 2.9 W 17 26 9 14 - - 0.2
24/03:00pm 14.4 10.5 8.8 69 3.0 W 19 30 10 16 - - 0.2
24/02:30pm 14.8 10.8 9.0 68 3.1 W 20 35 11 19 - - 0.2
24/02:00pm 16.2 11.5 9.2 63 3.8 W 24 35 13 19 - - 0.2
24/01:30pm 16.5 12.2 9.4 63 3.9 W 22 35 12 19 - - 0.2
24/01:00pm 14.5 11.1 10.7 78 2.1 W 19 30 10 16 - - 0.2
24/12:30pm 14.4 10.3 10.2 76 2.3 W 22 35 12 19 - - 0.2
24/12:00pm 14.7 9.4 9.9 73 2.6 WSW 28 44 15 24 - - 0.0
24/11:30am 14.0 9.4 9.6 75 2.4 W 24 37 13 20 - - 0.0
24/11:00am 14.5 9.7 10.3 76 2.3 W 26 37 14 20 - - 0.0
24/10:30am 13.7 9.7 10.5 81 1.8 W 22 33 12 18 - - 0.0
24/10:00am 13.4 9.1 10.9 85 1.4 W 24 39 13 21 - - 0.0
24/09:57am 13.3 9.1 11.0 86 1.3 W 24 33 13 18 - - 0.0
24/09:30am 12.3 8.0 12.1 99 0.1 WSW 26 43 14 23 - - 0.0
24/09:00am 11.8 8.1 11.6 99 0.1 W 22 32 12 17 - - 0.2
24/08:45am 11.5 8.1 11.3 99 0.1 WSW 20 28 11 15 - - 0.2
24/08:30am 11.4 8.0 11.2 99 0.1 W 20 28 11 15 - - 0.2
24/08:00am 10.9 7.5 10.7 99 0.1 WSW 19 28 10 15 - - 0.2
24/07:30am 10.5 7.4 10.3 99 0.1 W 17 20 9 11 - - 0.2
24/07:00am 10.4 7.7 10.2 99 0.1 WSW 15 19 8 10 - - 0.2
24/06:51am 10.4 7.7 10.2 99 0.1 WSW 15 20 8 11 - - 0.2
24/06:30am 10.2 7.4 10.0 99 0.1 WSW 15 20 8 11 - - 0.2
24/06:05am 10.3 7.5 10.1 99 0.1 W 15 20 8 11 - - 0.2
24/06:00am 10.2 7.8 10.0 99 0.1 W 13 19 7 10 - - 0.2
24/05:42am 10.3 7.5 10.1 99 0.1 W 15 17 8 9 - - 0.2
24/05:38am 10.3 7.5 10.1 99 0.1 WSW 15 20 8 11 - - 0.2
24/05:36am 10.3 7.5 10.1 99 0.1 W 15 20 8 11 - - 0.2
24/05:30am 10.5 7.4 10.3 99 0.1 W 17 20 9 11 - - 0.2
24/05:15am 10.4 8.0 10.2 99 0.1 W 13 17 7 9 - - 0.2
24/05:02am 10.6 7.9 10.4 99 0.1 W 15 19 8 10 - - 0.2
24/05:00am 10.6 7.9 10.4 99 0.1 W 15 19 8 10 - - 0.2
24/04:30am 10.5 7.8 10.3 99 0.1 W 15 20 8 11 - - 0.2
24/04:00am 10.4 8.0 10.2 99 0.1 W 13 17 7 9 - - 0.2
24/03:30am 10.7 8.8 10.5 99 0.1 W 11 15 6 8 - - 0.2
24/03:22am 10.6 8.7 10.4 99 0.1 W 11 13 6 7 - - 0.2
24/03:00am 10.7 8.8 10.5 99 0.1 W 11 15 6 8 - - 0.2
24/02:30am 11.0 9.2 10.8 99 0.1 W 11 15 6 8 - - 0.2
24/02:00am 11.2 9.8 11.0 99 0.1 WSW 9 11 5 6 - - 0.2
24/01:30am 11.4 10.1 11.2 99 0.1 WSW 9 13 5 7 - - 0.2
24/01:00am 11.4 10.5 11.2 99 0.1 WSW 7 11 4 6 - - 0.2
24/12:30am 11.5 10.6 11.2 98 0.2 WNW 7 11 4 6 - - 0.2
24/12:15am 11.2 10.4 10.9 98 0.2 NW 6 7 3 4 - - 0.2
24/12:03am 11.2 10.2 10.9 98 0.2 NW 7 9 4 5 - - 0.2
24/12:00am 11.2 10.2 10.9 98 0.2 NW 7 9 4 5 - - 0.2
 
Date/Time
EST
Tmp

°C
App
Tmp
°C
Dew
Point
°C
Rel
Hum
%
Delta-T

°C
Wind Press
QNH
hPa
Press
MSL
hPa
Rain
since
9 am
mm
Dir
 
Spd
km/h
Gust
km/h
Spd
kts
Gust
kts
23/11:37pm 11.6 10.7 11.3 98 0.2 N 7 11 4 6 - - 0.2
23/11:30pm 11.6 10.7 11.3 98 0.2 NNE 7 11 4 6 - - 0.2
23/11:20pm 11.7 11.0 11.4 98 0.2 NE 6 9 3 5 - - 0.2
23/11:12pm 11.8 11.1 11.5 98 0.2 NE 6 7 3 4 - - 0.2
23/11:00pm 11.9 12.0 11.6 98 0.2 NNE 2 7 1 4 - - 0.2
23/10:54pm 11.9 12.0 11.6 98 0.2 NNE 2 7 1 4 - - 0.2

Latest Capital City Observations: Canberra | Sydney | Melbourne | Brisbane | Adelaide | Perth | Hobart | Darwin

Other Formats:

Comma delimited format used in spreadsheet applications
http://www.bom.gov.au/fwo/IDN60901/IDN60901.94743.axf

JavaScript Object Notation format (JSON) in row-major order
http://www.bom.gov.au/fwo/IDN60901/IDN60901.94743.json